Time;durP1;ratioP1;P1;durP2;ratioP2;P2;SDS_P1;SDS_P2;PMS_P1;PMS_P2;Temp;Humidity;BMP_temperature;BMP_pressure;BME280_temperature;BME280_humidity;BME280_pressure;Samples;Min_cycle;Max_cycle;Signal;HPM_P1;HPM_P2
2022/06/25 00:02:13;;;;;;;;;;;;;;;17.05;75.14;95087.94;5155667;27;1984;-48
2022/06/25 00:07:23;;;;;;;;;;;;;;;17.14;75.12;95084.03;5155654;27;1580;-48
2022/06/25 00:09:49;;;;;;;;;;;;;;;17.03;75.16;95089.19;5155601;27;1027;-48
2022/06/25 00:12:34;;;;;;;;;;;;;;;16.90;76.94;95090.81;5137238;27;1186;-48
2022/06/25 00:15:01;;;;;;;;;;;;;;;16.91;76.61;95094.34;5155383;27;1015;-48
2022/06/25 00:17:27;;;;;;;;;;;;;;;16.70;76.96;95087.16;5155429;27;1091;-48
2022/06/25 00:19:53;;;;;;;;;;;;;;;16.47;77.46;95082.06;5155492;27;964;-48
2022/06/25 00:22:19;;;;;;;;;;;;;;;16.49;77.14;95067.34;5155087;27;1993;-48
2022/06/25 00:24:45;;;;;;;;;;;;;;;16.53;77.33;95063.19;5155510;27;999;-48
2022/06/25 00:27:11;;;;;;;;;;;;;;;16.79;76.17;95064.38;5155193;27;1573;-48
2022/06/25 00:29:37;;;;;;;;;;;;;;;16.89;76.54;95067.53;5155354;27;1039;-48
2022/06/25 00:32:04;;;;;;;;;;;;;;;16.79;76.67;95064.38;5154977;27;1019;-48
2022/06/25 00:34:30;;;;;;;;;;;;;;;16.67;77.13;95068.66;5154984;27;1044;-48
2022/06/25 00:36:57;;;;;;;;;;;;;;;16.58;77.80;95076.94;5154758;27;1040;-48
2022/06/25 00:39:23;;;;;;;;;;;;;;;16.59;77.17;95080.47;5154866;27;1003;-48
2022/06/25 00:41:49;;;;;;;;;;;;;;;16.70;77.24;95085.28;5152587;27;1913;-48
2022/06/25 00:44:16;;;;;;;;;;;;;;;16.51;78.09;95075.25;5134032;27;990;-48
2022/06/25 00:46:45;;;;;;;;;;;;;;;16.25;78.75;95068.66;5134121;28;1006;-48
2022/06/25 00:49:11;;;;;;;;;;;;;;;16.11;79.03;95072.31;5134338;28;1016;-48
2022/06/25 00:51:37;;;;;;;;;;;;;;;16.27;78.45;95068.44;5134382;28;1067;-48
2022/06/25 00:54:04;;;;;;;;;;;;;;;16.39;77.93;95062.31;5134308;28;1036;-48
2022/06/25 00:56:36;;;;;;;;;;;;;;;16.27;78.66;95060.34;5134207;28;973;-48
2022/06/25 00:59:04;;;;;;;;;;;;;;;16.26;78.90;95062.22;5134176;28;1131;-48
2022/06/25 01:01:32;;;;;;;;;;;;;;;16.27;79.05;95065.75;5134250;28;1993;-48
2022/06/25 01:03:58;;;;;;;;;;;;;;;16.31;78.55;95061.63;5134454;28;1023;-48
2022/06/25 01:06:24;;;;;;;;;;;;;;;16.24;78.87;95061.59;5133727;28;1080;-48
2022/06/25 01:08:50;;;;;;;;;;;;;;;16.28;78.23;95051.25;5134304;28;961;-48
2022/06/25 01:11:16;;;;;;;;;;;;;;;16.27;78.30;95052.25;5134026;28;1023;-48
2022/06/25 01:13:42;;;;;;;;;;;;;;;16.29;78.54;95055.59;5115741;28;852;-48
2022/06/25 01:16:08;;;;;;;;;;;;;;;16.28;78.37;95062.88;5133865;28;1004;-48
2022/06/25 01:18:34;;;;;;;;;;;;;;;16.29;78.87;95058.28;5134331;28;945;-48
2022/06/25 01:21:00;;;;;;;;;;;;;;;16.28;78.72;95060.16;5133589;28;1910;-48
2022/06/25 01:23:27;;;;;;;;;;;;;;;16.31;79.00;95067.03;5134182;28;988;-48
2022/06/25 01:25:53;;;;;;;;;;;;;;;16.27;79.37;95084.63;5133967;28;1031;-48
2022/06/25 01:28:19;;;;;;;;;;;;;;;16.37;78.90;95071.63;5115716;28;960;-48
2022/06/25 01:30:45;;;;;;;;;;;;;;;16.42;77.89;95069.16;5133991;28;1876;-48
2022/06/25 01:33:11;;;;;;;;;;;;;;;16.31;78.49;95075.13;5134010;28;941;-48
2022/06/25 01:35:37;;;;;;;;;;;;;;;16.15;78.46;95074.41;5133918;28;960;-48
2022/06/25 01:38:04;;;;;;;;;;;;;;;16.01;79.61;95075.31;5133659;28;1043;-48
2022/06/25 01:40:31;;;;;;;;;;;;;;;16.15;79.01;95076.28;5134004;28;980;-48
2022/06/25 01:42:58;;;;;;;;;;;;;;;16.19;78.75;95077.53;5145657;27;1977;-48
2022/06/25 01:45:24;;;;;;;;;;;;;;;16.22;78.49;95068.22;5154739;27;1019;-48
2022/06/25 01:47:51;;;;;;;;;;;;;;;16.14;79.18;95053.00;5154569;27;1015;-48
2022/06/25 01:50:17;;;;;;;;;;;;;;;16.31;78.05;95053.53;5154634;27;959;-48
2022/06/25 01:52:43;;;;;;;;;;;;;;;16.73;75.75;95055.19;5154495;27;1190;-48
2022/06/25 01:55:10;;;;;;;;;;;;;;;16.90;75.65;95054.84;5154386;27;1090;-48
2022/06/25 01:57:36;;;;;;;;;;;;;;;16.74;77.05;95058.72;5156095;27;963;-48
2022/06/25 02:00:06;;;;;;;;;;;;;;;16.62;77.35;95065.72;5158297;27;1051;-48
2022/06/25 02:02:32;;;;;;;;;;;;;;;16.67;77.66;95082.16;5158035;27;1988;-47
2022/06/25 02:04:58;;;;;;;;;;;;;;;16.63;79.03;95094.38;5157842;27;1118;-48
2022/06/25 02:07:25;;;;;;;;;;;;;;;16.44;79.93;95095.94;5157949;27;1051;-48
2022/06/25 02:09:51;;;;;;;;;;;;;;;16.45;78.23;95098.47;5157961;27;1024;-48
2022/06/25 02:12:17;;;;;;;;;;;;;;;16.61;78.43;95081.09;5139330;27;981;-48
2022/06/25 02:14:43;;;;;;;;;;;;;;;16.82;77.03;95082.88;5139619;27;1876;-48
2022/06/25 02:17:09;;;;;;;;;;;;;;;16.83;77.14;95081.84;5157794;27;979;-48
2022/06/25 02:19:35;;;;;;;;;;;;;;;16.80;78.09;95076.81;5157777;27;1083;-48
2022/06/25 02:22:01;;;;;;;;;;;;;;;16.66;78.13;95073.22;5157303;27;1974;-47
2022/06/25 02:24:27;;;;;;;;;;;;;;;16.46;79.26;95089.31;5157630;27;1024;-48
2022/06/25 02:26:53;;;;;;;;;;;;;;;16.43;79.34;95087.03;5157457;27;917;-47
2022/06/25 02:29:19;;;;;;;;;;;;;;;16.41;79.74;95089.09;5157734;27;959;-47
2022/06/25 02:31:45;;;;;;;;;;;;;;;16.39;80.08;95093.84;5157732;27;976;-47
2022/06/25 02:34:11;;;;;;;;;;;;;;;16.30;80.92;95112.06;5157260;27;1023;-48
2022/06/25 02:36:37;;;;;;;;;;;;;;;16.27;80.80;95108.91;5157434;27;1252;-48
2022/06/25 02:39:03;;;;;;;;;;;;;;;16.27;80.26;95111.63;5157211;27;940;-47
2022/06/25 02:41:29;;;;;;;;;;;;;;;16.41;78.63;95097.19;5157245;27;1909;-47
2022/06/25 02:43:55;;;;;;;;;;;;;;;16.71;78.10;95096.91;5136830;27;1220;-47
2022/06/25 02:46:21;;;;;;;;;;;;;;;16.76;78.54;95097.97;5136405;27;1083;-48
2022/06/25 02:48:47;;;;;;;;;;;;;;;16.81;77.69;95102.78;5136519;27;969;-48
2022/06/25 02:51:13;;;;;;;;;;;;;;;16.77;79.10;95121.25;5136471;27;988;-48
2022/06/25 02:53:40;;;;;;;;;;;;;;;16.92;78.82;95123.84;5136289;27;960;-47
2022/06/25 02:58:54;;;;;;;;;;;;;;;16.95;77.78;95112.63;5136381;27;1237;-48
2022/06/25 03:01:21;;;;;;;;;;;;;;;16.86;78.51;95121.94;5136070;27;1990;-48
2022/06/25 03:03:47;;;;;;;;;;;;;;;16.82;77.97;95136.88;5136127;27;960;-48
2022/06/25 03:06:13;;;;;;;;;;;;;;;16.74;79.09;95131.63;5135896;27;1075;-48
2022/06/25 03:08:40;;;;;;;;;;;;;;;16.82;78.95;95119.81;5135491;27;958;-48
2022/06/25 03:11:07;;;;;;;;;;;;;;;16.93;78.77;95120.09;5136520;27;2136;-48
2022/06/25 03:13:36;;;;;;;;;;;;;;;17.15;77.78;95122.69;5136005;27;1060;-48
2022/06/25 03:16:02;;;;;;;;;;;;;;;17.15;78.71;95117.28;5135160;27;1956;-48
2022/06/25 03:18:28;;;;;;;;;;;;;;;17.09;78.68;95110.84;5135817;27;1146;-49
2022/06/25 03:20:55;;;;;;;;;;;;;;;17.04;78.74;95107.06;5135707;27;1253;-49
2022/06/25 03:23:22;;;;;;;;;;;;;;;17.11;79.29;95106.06;5134793;27;1975;-48
2022/06/25 03:25:48;;;;;;;;;;;;;;;17.05;79.01;95116.81;5135649;27;1959;-48
2022/06/25 03:28:15;;;;;;;;;;;;;;;17.06;80.34;95110.41;5135687;27;969;-48
2022/06/25 03:30:41;;;;;;;;;;;;;;;17.08;80.00;95111.03;5135638;27;1091;-49
2022/06/25 03:33:08;;;;;;;;;;;;;;;17.04;81.50;95112.47;5135506;27;949;-49
2022/06/25 03:35:34;;;;;;;;;;;;;;;16.94;80.69;95110.13;5135370;27;1048;-49
2022/06/25 03:38:00;;;;;;;;;;;;;;;16.93;80.63;95103.06;5135272;27;1216;-49
2022/06/25 03:40:26;;;;;;;;;;;;;;;17.14;79.46;95097.53;5135623;27;992;-48
2022/06/25 03:42:52;;;;;;;;;;;;;;;17.26;79.47;95105.88;5146736;27;1917;-48
2022/06/25 03:45:18;;;;;;;;;;;;;;;17.39;79.57;95098.84;5156093;27;1036;-48
2022/06/25 03:47:49;;;;;;;;;;;;;;;17.37;80.42;95097.16;5156061;27;987;-49
2022/06/25 03:50:19;;;;;;;;;;;;;;;17.37;80.92;95089.06;5155963;27;956;-48
2022/06/25 03:52:46;;;;;;;;;;;;;;;17.22;82.10;95098.38;5155913;27;1103;-49
2022/06/25 03:55:13;;;;;;;;;;;;;;;17.24;81.70;95099.00;5155942;27;1023;-48
2022/06/25 03:57:39;;;;;;;;;;;;;;;17.22;81.44;95099.22;5156025;27;1015;-48
2022/06/25 04:00:06;;;;;;;;;;;;;;;17.29;82.51;95110.88;5155603;27;1122;-48
2022/06/25 04:02:32;;;;;;;;;;;;;;;17.23;81.86;95111.69;5155789;27;1910;-48
2022/06/25 04:04:58;;;;;;;;;;;;;;;17.24;80.77;95118.75;5155376;27;1003;-48
2022/06/25 04:07:24;;;;;;;;;;;;;;;17.29;81.81;95126.25;5137314;27;1665;-48
2022/06/25 04:09:51;;;;;;;;;;;;;;;17.25;82.65;95131.25;5137398;27;987;-48
2022/06/25 04:12:17;;;;;;;;;;;;;;;17.23;83.03;95127.91;5155716;27;996;-48
2022/06/25 04:14:43;;;;;;;;;;;;;;;17.22;82.99;95128.94;5155440;27;1035;-49
2022/06/25 04:17:09;;;;;;;;;;;;;;;17.23;83.56;95129.78;5155542;27;1007;-48
2022/06/25 04:19:40;;;;;;;;;;;;;;;17.23;83.08;95130.63;5154641;27;1064;-49
2022/06/25 04:22:09;;;;;;;;;;;;;;;17.45;83.26;95142.09;5155149;27;2002;-48
2022/06/25 04:24:37;;;;;;;;;;;;;;;17.67;80.96;95139.25;5154988;27;1032;-48
2022/06/25 04:27:03;;;;;;;;;;;;;;;17.81;78.62;95142.78;5155384;27;1076;-50
2022/06/25 04:29:30;;;;;;;;;;;;;;;18.05;78.96;95147.63;5155196;27;1082;-48
2022/06/25 04:31:56;;;;;;;;;;;;;;;18.26;75.44;95143.06;5137078;27;1032;-48
2022/06/25 04:34:22;;;;;;;;;;;;;;;18.48;71.81;95136.38;5154950;27;960;-48
2022/06/25 04:36:48;;;;;;;;;;;;;;;18.54;71.64;95143.63;5155509;27;1012;-48
2022/06/25 04:39:14;;;;;;;;;;;;;;;18.78;71.18;95135.91;5155212;27;1285;-48
2022/06/25 04:41:40;;;;;;;;;;;;;;;18.99;70.15;95136.69;5136629;27;1901;-49
2022/06/25 04:44:07;;;;;;;;;;;;;;;19.15;70.39;95135.38;5154963;27;960;-48
2022/06/25 04:46:33;;;;;;;;;;;;;;;19.15;68.86;95140.81;5154913;27;1027;-49
2022/06/25 04:48:59;;;;;;;;;;;;;;;19.18;66.90;95133.06;5154930;27;960;-49
2022/06/25 04:51:25;;;;;;;;;;;;;;;19.24;68.84;95128.69;5155063;27;1083;-50
2022/06/25 04:53:57;;;;;;;;;;;;;;;19.31;67.78;95130.31;5155111;27;991;-49
2022/06/25 04:56:25;;;;;;;;;;;;;;;19.38;67.54;95124.84;5154983;27;1118;-48
2022/06/25 04:58:51;;;;;;;;;;;;;;;19.44;67.19;95129.38;5154928;27;1032;-48
2022/06/25 05:01:18;;;;;;;;;;;;;;;19.53;68.47;95135.41;5154847;27;1902;-48
2022/06/25 05:03:44;;;;;;;;;;;;;;;19.74;67.47;95139.69;5154961;27;1091;-49
2022/06/25 05:06:10;;;;;;;;;;;;;;;19.86;68.80;95142.50;5154557;27;1971;-49
2022/06/25 05:08:36;;;;;;;;;;;;;;;19.87;70.12;95141.47;5155145;27;1040;-49
2022/06/25 05:11:02;;;;;;;;;;;;;;;19.94;68.15;95142.28;5154832;27;953;-50
2022/06/25 05:13:29;;;;;;;;;;;;;;;19.94;67.02;95139.56;5154889;27;1020;-49
2022/06/25 05:15:55;;;;;;;;;;;;;;;20.17;67.46;95146.28;5154783;27;1219;-50
2022/06/25 05:18:21;;;;;;;;;;;;;;;20.22;65.63;95146.41;5154766;27;1062;-49
2022/06/25 05:20:47;;;;;;;;;;;;;;;20.15;66.96;95141.06;5154193;27;1075;-49
2022/06/25 05:23:14;;;;;;;;;;;;;;;20.38;67.65;95131.47;5154304;27;1982;-48
2022/06/25 05:25:41;;;;;;;;;;;;;;;20.45;66.45;95141.22;5135941;27;1082;-49
2022/06/25 05:28:07;;;;;;;;;;;;;;;20.62;65.49;95140.66;5154477;27;1092;-49
2022/06/25 05:30:33;;;;;;;;;;;;;;;20.93;65.93;95137.00;5154940;27;1098;-49
2022/06/25 05:32:59;;;;;;;;;;;;;;;21.08;65.62;95130.34;5158692;27;1028;-48
2022/06/25 05:35:26;;;;;;;;;;;;;;;20.97;64.52;95126.53;5158548;27;967;-49
2022/06/25 05:37:52;;;;;;;;;;;;;;;21.02;64.46;95134.84;5158641;27;960;-49
2022/06/25 05:40:18;;;;;;;;;;;;;;;21.02;62.76;95134.84;5158375;27;1043;-49
2022/06/25 05:42:44;;;;;;;;;;;;;;;21.00;62.62;95132.34;5148128;27;1914;-49
2022/06/25 05:45:11;;;;;;;;;;;;;;;21.08;62.57;95133.91;5137555;27;992;-49
2022/06/25 05:47:37;;;;;;;;;;;;;;;21.21;64.48;95133.75;5137690;27;1055;-49
2022/06/25 05:50:03;;;;;;;;;;;;;;;21.30;63.66;95125.28;5137611;27;1028;-49
2022/06/25 05:52:30;;;;;;;;;;;;;;;21.41;62.64;95116.34;5137556;27;1036;-49
2022/06/25 05:54:56;;;;;;;;;;;;;;;21.48;63.56;95113.59;5137437;27;1020;-59
2022/06/25 05:57:22;;;;;;;;;;;;;;;21.69;64.09;95117.69;5137552;27;1060;-49
2022/06/25 05:59:48;;;;;;;;;;;;;;;21.72;63.58;95117.19;5137325;27;988;-48
2022/06/25 06:02:14;;;;;;;;;;;;;;;21.82;62.04;95117.50;5137157;27;2007;-48
2022/06/25 06:04:40;;;;;;;;;;;;;;;22.10;62.03;95118.72;5119177;27;1000;-47
2022/06/25 06:07:06;;;;;;;;;;;;;;;22.10;63.38;95119.56;5119101;27;1057;-47
2022/06/25 06:09:32;;;;;;;;;;;;;;;22.25;62.92;95121.84;5137244;27;968;-48
2022/06/25 06:11:59;;;;;;;;;;;;;;;22.29;63.00;95124.94;5137188;27;1073;-48
2022/06/25 06:14:25;;;;;;;;;;;;;;;22.56;62.67;95123.44;5119027;27;968;-48
2022/06/25 06:16:51;;;;;;;;;;;;;;;22.60;62.14;95113.72;5136991;27;1052;-48
2022/06/25 06:19:17;;;;;;;;;;;;;;;22.56;62.23;95114.44;5137312;27;1056;-47
2022/06/25 06:21:44;;;;;;;;;;;;;;;22.68;60.76;95120.69;5136710;27;1913;-49
2022/06/25 06:24:10;;;;;;;;;;;;;;;22.73;59.33;95118.09;5137053;27;955;-47
2022/06/25 06:26:37;;;;;;;;;;;;;;;22.87;60.87;95120.56;5136797;27;1024;-47
2022/06/25 06:29:03;;;;;;;;;;;;;;;22.92;60.86;95124.25;5136663;27;1118;-48
2022/06/25 06:31:29;;;;;;;;;;;;;;;23.05;59.55;95120.47;5136584;27;975;-48
2022/06/25 06:33:55;;;;;;;;;;;;;;;23.31;60.78;95118.25;5137051;27;1026;-48
2022/06/25 06:36:21;;;;;;;;;;;;;;;23.47;60.41;95116.69;5136496;27;973;-48
2022/06/25 06:38:47;;;;;;;;;;;;;;;23.44;59.86;95117.16;5136695;27;1102;-47
2022/06/25 06:41:13;;;;;;;;;;;;;;;23.47;60.87;95120.22;5136531;27;1921;-47
2022/06/25 06:43:39;;;;;;;;;;;;;;;23.68;61.04;95123.34;5153858;27;1196;-48
2022/06/25 06:46:06;;;;;;;;;;;;;;;23.86;60.70;95131.34;5157108;27;1003;-47
2022/06/25 06:48:32;;;;;;;;;;;;;;;23.83;59.66;95110.03;5157300;27;1095;-48
2022/06/25 06:50:58;;;;;;;;;;;;;;;23.72;60.36;95113.59;5157338;27;1043;-48
2022/06/25 06:53:24;;;;;;;;;;;;;;;23.93;60.11;95125.75;5157248;27;1039;-47
2022/06/25 06:55:50;;;;;;;;;;;;;;;24.03;61.41;95120.47;5157039;27;1028;-48
2022/06/25 06:58:17;;;;;;;;;;;;;;;24.13;61.22;95120.66;5156980;27;1008;-48
2022/06/25 07:00:43;;;;;;;;;;;;;;;24.24;60.06;95121.63;5157075;27;977;-47
2022/06/25 07:03:09;;;;;;;;;;;;;;;24.36;59.40;95110.66;5156525;27;1990;-47
2022/06/25 07:05:36;;;;;;;;;;;;;;;24.33;59.87;95114.69;5156943;27;976;-48
2022/06/25 07:08:02;;;;;;;;;;;;;;;24.33;58.76;95103.75;5156770;27;1034;-48
2022/06/25 07:10:28;;;;;;;;;;;;;;;24.60;58.16;95099.56;5156822;27;1645;-48
2022/06/25 07:12:54;;;;;;;;;;;;;;;24.60;57.35;95105.84;5156609;27;1043;-48
2022/06/25 07:15:20;;;;;;;;;;;;;;;24.62;55.49;95100.13;5156670;27;1038;-48
2022/06/25 07:17:46;;;;;;;;;;;;;;;24.62;55.04;95100.13;5156812;27;987;-48
2022/06/25 07:20:12;;;;;;;;;;;;;;;24.73;54.86;95097.28;5156581;27;1095;-48
2022/06/25 07:22:39;;;;;;;;;;;;;;;25.02;54.06;95094.41;5156404;27;1901;-48
2022/06/25 07:25:05;;;;;;;;;;;;;;;25.21;54.92;95094.94;5156527;27;1062;-48
2022/06/25 07:27:32;;;;;;;;;;;;;;;25.35;55.04;95100.06;5138063;27;1019;-48
2022/06/25 07:29:58;;;;;;;;;;;;;;;25.39;55.22;95096.53;5156472;27;1019;-48
2022/06/25 07:32:24;;;;;;;;;;;;;;;25.47;55.59;95104.28;5156122;27;1970;-48
2022/06/25 07:34:50;;;;;;;;;;;;;;;25.60;55.81;95103.09;5156126;27;1064;-48
2022/06/25 07:37:17;;;;;;;;;;;;;;;25.55;55.53;95102.19;5156206;27;991;-48
2022/06/25 07:39:43;;;;;;;;;;;;;;;25.57;56.05;95094.56;5156367;27;1012;-48
2022/06/25 07:42:09;;;;;;;;;;;;;;;25.70;55.86;95094.97;5150594;27;1974;-48
2022/06/25 07:44:35;;;;;;;;;;;;;;;25.81;56.32;95100.56;5135288;27;1024;-48
2022/06/25 07:47:01;;;;;;;;;;;;;;;25.95;56.02;95090.03;5117151;27;966;-48
2022/06/25 07:49:27;;;;;;;;;;;;;;;25.93;55.69;95092.22;5135571;27;1047;-48
2022/06/25 07:51:56;;;;;;;;;;;;;;;26.01;55.56;95102.69;5117157;27;1075;-48
2022/06/25 07:54:23;;;;;;;;;;;;;;;26.09;56.06;95094.03;5135073;27;1096;-48
2022/06/25 07:56:50;;;;;;;;;;;;;;;26.33;55.78;95093.66;5135177;27;1024;-49
2022/06/25 07:59:16;;;;;;;;;;;;;;;26.40;54.57;95095.09;5134892;27;1112;-48
2022/06/25 08:01:42;;;;;;;;;;;;;;;26.42;53.91;95090.19;5135286;27;1979;-48
2022/06/25 08:04:08;;;;;;;;;;;;;;;26.47;55.54;95103.13;5134714;27;977;-48
2022/06/25 08:06:37;;;;;;;;;;;;;;;26.63;55.05;95090.34;5116818;27;1083;-48
2022/06/25 08:09:04;;;;;;;;;;;;;;;26.74;53.77;95092.09;5134838;27;990;-48
2022/06/25 08:11:31;;;;;;;;;;;;;;;26.90;55.87;95093.03;5134915;27;1215;-48
2022/06/25 08:13:57;;;;;;;;;;;;;;;26.83;52.17;95081.44;5134746;27;1047;-48
2022/06/25 08:16:25;;;;;;;;;;;;;;;26.85;53.51;95082.00;5116562;27;1032;-47
2022/06/25 08:18:52;;;;;;;;;;;;;;;27.07;55.80;95088.19;5134449;27;1063;-48
2022/06/25 08:21:18;;;;;;;;;;;;;;;27.20;54.08;95084.09;5116350;27;2042;-51
2022/06/25 08:23:45;;;;;;;;;;;;;;;27.20;52.49;95083.28;5133619;27;1048;-49
2022/06/25 08:26:12;;;;;;;;;;;;;;;27.30;53.02;95082.53;5133724;27;1163;-48
2022/06/25 08:28:38;;;;;;;;;;;;;;;27.37;54.64;95083.09;5133941;27;965;-48
2022/06/25 08:31:04;;;;;;;;;;;;;;;27.54;53.39;95089.19;5134251;27;1052;-48
2022/06/25 08:33:31;;;;;;;;;;;;;;;27.73;53.12;95081.28;5134279;27;974;-48
2022/06/25 08:35:57;;;;;;;;;;;;;;;27.92;51.67;95078.06;5134112;27;987;-48
2022/06/25 08:38:23;;;;;;;;;;;;;;;27.79;52.97;95068.41;5098909;27;1610;-48
2022/06/25 08:40:54;;;;;;;;;;;;;;;27.83;52.12;95078.59;5116356;27;1038;-48
2022/06/25 08:43:20;;;;;;;;;;;;;;;27.97;52.50;95078.91;5149515;27;1973;-48
2022/06/25 08:45:47;;;;;;;;;;;;;;;28.06;51.32;95079.19;5155385;27;962;-48
2022/06/25 08:48:17;;;;;;;;;;;;;;;28.00;52.73;95074.78;5136728;27;965;-48
2022/06/25 08:50:44;;;;;;;;;;;;;;;28.08;53.14;95073.41;5155301;27;1015;-49
2022/06/25 08:53:11;;;;;;;;;;;;;;;28.18;51.52;95078.94;5154875;27;957;-48
2022/06/25 08:55:39;;;;;;;;;;;;;;;28.30;52.30;95076.72;5155038;27;1079;-48
2022/06/25 08:58:05;;;;;;;;;;;;;;;28.33;51.98;95078.94;5154684;27;1003;-48
2022/06/25 09:00:32;;;;;;;;;;;;;;;28.37;53.58;95081.97;5155091;27;1023;-48
2022/06/25 09:02:59;;;;;;;;;;;;;;;28.44;52.07;95085.25;5136395;27;1902;-48
2022/06/25 09:05:26;;;;;;;;;;;;;;;28.54;52.80;95073.47;5154852;27;1076;-48
2022/06/25 09:07:54;;;;;;;;;;;;;;;28.54;53.26;95066.03;5141090;27;945;-48
2022/06/25 09:10:21;;;;;;;;;;;;;;;28.72;52.58;95066.53;5158963;27;1039;-48
2022/06/25 09:12:55;;;;;;;;;;;;;;;28.79;52.17;95069.84;5158862;27;995;-48
2022/06/25 09:15:23;;;;;;;;;;;;;;;28.71;50.65;95073.97;5158876;27;1075;-48
2022/06/25 09:17:52;;;;;;;;;;;;;;;28.78;53.46;95084.72;5158981;27;1083;-48
2022/06/25 09:20:19;;;;;;;;;;;;;;;28.71;49.59;95075.91;5158680;27;1083;-49
2022/06/25 09:22:53;;;;;;;;;;;;;;;28.67;51.26;95072.06;5158886;27;1906;-48
2022/06/25 09:25:23;;;;;;;;;;;;;;;28.91;52.95;95078.63;5158807;27;977;-48
2022/06/25 09:27:49;;;;;;;;;;;;;;;29.06;52.54;95086.00;5158878;27;956;-48
2022/06/25 09:30:16;;;;;;;;;;;;;;;29.08;51.90;95081.03;5158628;27;1007;-47
2022/06/25 09:32:46;;;;;;;;;;;;;;;29.08;52.53;95086.53;5158809;27;969;-48
2022/06/25 09:35:13;;;;;;;;;;;;;;;29.14;51.98;95079.13;5158126;27;1099;-47
2022/06/25 09:37:40;;;;;;;;;;;;;;;29.20;52.35;95078.84;5158474;27;1044;-47
2022/06/25 09:40:07;;;;;;;;;;;;;;;29.31;53.02;95073.28;5158540;27;1044;-47
2022/06/25 09:42:34;;;;;;;;;;;;;;;29.32;51.21;95067.50;5149879;27;1980;-47
2022/06/25 09:45:06;;;;;;;;;;;;;;;29.36;50.82;95068.59;5137575;27;1123;-47
2022/06/25 09:47:39;;;;;;;;;;;;;;;29.46;49.98;95050.38;5137616;27;1035;-47
2022/06/25 09:50:05;;;;;;;;;;;;;;;29.60;49.94;95056.91;5137308;27;1028;-48
2022/06/25 09:52:32;;;;;;;;;;;;;;;29.64;51.38;95062.69;5137490;27;921;-48
2022/06/25 09:54:58;;;;;;;;;;;;;;;29.72;52.86;95048.31;5137318;27;1052;-47
2022/06/25 09:57:24;;;;;;;;;;;;;;;29.84;49.74;95054.34;5137506;27;1071;-47
2022/06/25 09:59:51;;;;;;;;;;;;;;;29.93;50.77;95049.03;5137314;27;981;-47
2022/06/25 10:02:18;;;;;;;;;;;;;;;29.96;49.65;95053.97;5137339;27;1909;-48
2022/06/25 10:04:44;;;;;;;;;;;;;;;29.87;50.57;95044.66;5136883;27;1039;-47
2022/06/25 10:07:12;;;;;;;;;;;;;;;29.75;51.35;95042.28;5137414;27;1035;-47
2022/06/25 10:09:40;;;;;;;;;;;;;;;29.82;50.54;95044.69;5137203;27;1019;-47
2022/06/25 10:12:06;;;;;;;;;;;;;;;29.98;50.66;95049.00;5137223;27;1292;-47
2022/06/25 10:14:34;;;;;;;;;;;;;;;30.13;49.58;95045.31;5136908;27;1091;-47
2022/06/25 10:17:00;;;;;;;;;;;;;;;30.14;49.57;95046.94;5136358;27;999;-48
2022/06/25 10:19:28;;;;;;;;;;;;;;;30.15;49.46;95049.41;5136292;27;966;-47
2022/06/25 10:21:55;;;;;;;;;;;;;;;30.24;49.33;95048.78;5136756;27;1913;-47
2022/06/25 10:24:21;;;;;;;;;;;;;;;30.33;50.86;95036.88;5136700;27;1976;-48
2022/06/25 10:26:47;;;;;;;;;;;;;;;30.35;49.48;95034.69;5137024;27;1035;-48
2022/06/25 10:29:27;;;;;;;;;;;;;;;30.40;48.33;95019.19;5118741;27;1047;-48
2022/06/25 10:32:11;;;;;;;;;;;;;;;30.42;47.07;95026.06;5136929;27;968;-48
2022/06/25 10:34:38;;;;;;;;;;;;;;;30.44;45.87;95014.75;5136702;27;1048;-48
2022/06/25 10:37:04;;;;;;;;;;;;;;;30.60;47.56;95015.41;5136908;27;1011;-48
2022/06/25 10:39:33;;;;;;;;;;;;;;;30.56;48.29;95023.44;5136793;27;1047;-48
2022/06/25 10:45:06;;;;;;;;;;;;;;;30.45;48.95;95003.44;5156636;27;1036;-48
2022/06/25 10:47:41;;;;;;;;;;;;;;;30.63;49.07;95001.03;5157498;27;973;-47
2022/06/25 10:50:19;;;;;;;;;;;;;;;30.74;48.24;94994.31;5157202;27;1043;-47
2022/06/25 10:53:09;;;;;;;;;;;;;;;30.79;46.77;94996.16;5157108;27;1027;-48
2022/06/25 10:55:37;;;;;;;;;;;;;;;30.77;47.83;94988.19;5143589;27;1335;-47
2022/06/25 10:58:09;;;;;;;;;;;;;;;30.67;46.69;94982.78;5157188;27;1059;-47
2022/06/25 11:00:48;;;;;;;;;;;;;;;30.63;46.61;94979.78;5157010;27;969;-47
2022/06/25 11:03:15;;;;;;;;;;;;;;;30.67;46.08;94983.59;5156870;27;1982;-47
2022/06/25 11:05:42;;;;;;;;;;;;;;;30.69;46.80;94977.78;5156914;27;1024;-47
2022/06/25 11:08:08;;;;;;;;;;;;;;;30.79;45.72;94974.09;5157106;27;971;-47
2022/06/25 11:10:35;;;;;;;;;;;;;;;30.70;44.63;94969.22;5156888;27;1044;-47
2022/06/25 11:13:03;;;;;;;;;;;;;;;30.54;43.59;94976.84;5156824;27;957;-48
2022/06/25 11:15:41;;;;;;;;;;;;;;;30.47;43.22;94972.81;5156633;27;1830;-48
2022/06/25 11:18:08;;;;;;;;;;;;;;;30.60;43.33;94966.59;5156658;27;976;-48
2022/06/25 11:20:34;;;;;;;;;;;;;;;30.80;43.69;94967.47;5156553;27;1323;-47
2022/06/25 11:23:00;;;;;;;;;;;;;;;30.93;43.03;94962.09;5156671;27;1990;-48
2022/06/25 11:30:55;;;;;;;;;;;;;;;30.83;43.65;94955.81;5156620;27;1040;-48
2022/06/25 11:33:22;;;;;;;;;;;;;;;30.83;42.35;94944.78;5156384;27;1230;-48
2022/06/25 11:35:49;;;;;;;;;;;;;;;30.91;42.11;94945.00;5156123;27;1060;-48
2022/06/25 11:38:16;;;;;;;;;;;;;;;30.91;42.63;94936.72;5156302;27;955;-48
2022/06/25 11:40:42;;;;;;;;;;;;;;;30.85;41.29;94932.34;5156084;27;918;-48
2022/06/25 11:43:08;;;;;;;;;;;;;;;30.85;43.31;94934.31;5142385;27;1914;-48
2022/06/25 11:45:56;;;;;;;;;;;;;;;30.89;41.69;94935.34;5135587;27;996;-48
2022/06/25 11:48:26;;;;;;;;;;;;;;;30.91;41.33;94933.97;5135472;27;999;-48
2022/06/25 11:51:00;;;;;;;;;;;;;;;30.97;42.24;94934.72;5135212;27;1076;-48
2022/06/25 11:53:26;;;;;;;;;;;;;;;30.71;41.72;94934.97;5135359;27;1039;-48
2022/06/25 11:55:58;;;;;;;;;;;;;;;30.46;42.51;94932.53;5135392;27;975;-48
2022/06/25 11:58:28;;;;;;;;;;;;;;;30.12;46.08;94936.13;5135316;27;1050;-48
2022/06/25 12:00:55;;;;;;;;;;;;;;;30.06;46.69;94932.59;5135005;27;1086;-48
2022/06/25 12:03:23;;;;;;;;;;;;;;;30.14;46.91;94926.47;5134929;27;1909;-48
2022/06/25 12:05:49;;;;;;;;;;;;;;;30.20;47.28;94916.19;5134881;27;953;-47
2022/06/25 12:08:15;;;;;;;;;;;;;;;30.34;47.96;94917.19;5134813;27;1056;-48
2022/06/25 12:10:42;;;;;;;;;;;;;;;30.43;45.88;94916.56;5135157;27;1020;-47
2022/06/25 12:13:09;;;;;;;;;;;;;;;30.35;46.50;94918.88;5134743;27;979;-48
2022/06/25 12:15:35;;;;;;;;;;;;;;;30.06;48.63;94918.81;5135023;27;1035;-48
2022/06/25 12:18:05;;;;;;;;;;;;;;;29.75;47.29;94923.78;5134732;27;1055;-49
2022/06/25 12:20:32;;;;;;;;;;;;;;;29.76;47.08;94928.19;5134701;27;1258;-48
2022/06/25 12:22:59;;;;;;;;;;;;;;;29.88;48.04;94916.78;5134454;27;2016;-49
2022/06/25 12:25:26;;;;;;;;;;;;;;;30.08;46.82;94922.13;5116684;27;1285;-49
2022/06/25 12:27:52;;;;;;;;;;;;;;;30.22;46.38;94924.19;5134682;27;995;-48
2022/06/25 12:30:25;;;;;;;;;;;;;;;30.33;47.31;94923.00;5134604;27;1222;-49
2022/06/25 12:32:52;;;;;;;;;;;;;;;30.38;46.89;94933.19;5134416;27;1198;-50
2022/06/25 12:35:18;;;;;;;;;;;;;;;30.43;46.14;94931.19;5134286;27;948;-48
2022/06/25 12:38:03;;;;;;;;;;;;;;;30.44;46.87;94921.78;5134631;27;991;-48
2022/06/25 12:40:40;;;;;;;;;;;;;;;30.43;46.55;94925.66;5133927;27;1044;-49
2022/06/25 12:43:07;;;;;;;;;;;;;;;30.51;45.17;94921.44;5147475;27;1906;-48
2022/06/25 12:45:34;;;;;;;;;;;;;;;30.50;44.52;94926.13;5155225;27;1043;-49
2022/06/25 12:48:00;;;;;;;;;;;;;;;30.50;44.04;94917.03;5154940;27;1114;-48
2022/06/25 12:50:28;;;;;;;;;;;;;;;30.49;45.93;94920.91;5155159;27;1016;-48
2022/06/25 12:52:55;;;;;;;;;;;;;;;30.62;45.41;94925.75;5154960;27;1019;-48
2022/06/25 12:55:22;;;;;;;;;;;;;;;30.74;44.65;94926.13;5155195;27;1019;-48
2022/06/25 12:57:48;;;;;;;;;;;;;;;30.68;44.63;94920.97;5155030;27;1087;-48
2022/06/25 13:00:21;;;;;;;;;;;;;;;30.71;44.91;94912.91;5154930;27;909;-48
2022/06/25 13:02:47;;;;;;;;;;;;;;;30.86;45.91;94917.44;5155016;27;1918;-47
2022/06/25 13:05:14;;;;;;;;;;;;;;;30.91;45.97;94920.16;5154901;27;979;-47
2022/06/25 13:07:41;;;;;;;;;;;;;;;30.88;45.03;94915.19;5154737;27;1111;-48
2022/06/25 13:10:07;;;;;;;;;;;;;;;30.88;44.49;94917.94;5155006;27;1186;-48
2022/06/25 13:12:33;;;;;;;;;;;;;;;30.89;44.79;94916.03;5154846;27;1043;-48
2022/06/25 13:15:01;;;;;;;;;;;;;;;30.91;45.80;94913.81;5154875;27;1015;-48